Terminal Aerodrome Forecast
Issued by NWS

Current Version | Previous Version | Graphics & Text | Print | Product List | Glossary On
Versions: 1 2 3 4 5 6 7 8 9 10 11 12 13 14 15 16 17 18 19 20
167
FTUS41 KILN 091514 AAA
TAFLCK
TAF AMD
KLCK 091514Z 0915/1012 24012KT 5SM -SN OVC015
     FM091700 27012G20KT 5SM -SHSN OVC018
     FM100200 27012KT P6SM VCSH OVC025=

USA.gov is the U.S. government's official web portal to all federal, state and local government web resources and services.